sensor_id;sensor_type;location;lat;lon;timestamp;P1;P2;P0
60816;PMS5003;51921;51.518;-3.188;2024-03-02T00:00:01;11;10;
60816;PMS5003;51921;51.518;-3.188;2024-03-02T00:02:26;13;13;
60816;PMS5003;51921;51.518;-3.188;2024-03-02T00:04:52;13;11;
60816;PMS5003;51921;51.518;-3.188;2024-03-02T00:07:18;11;11;
60816;PMS5003;51921;51.518;-3.188;2024-03-02T00:09:44;14;12;
60816;PMS5003;51921;51.518;-3.188;2024-03-02T00:12:10;13;13;
60816;PMS5003;51921;51.518;-3.188;2024-03-02T00:14:34;10;10;
60816;PMS5003;51921;51.518;-3.188;2024-03-02T00:17:00;8;8;
60816;PMS5003;51921;51.518;-3.188;2024-03-02T00:19:25;11;11;
60816;PMS5003;51921;51.518;-3.188;2024-03-02T00:21:51;11;11;
60816;PMS5003;51921;51.518;-3.188;2024-03-02T00:24:18;12;12;
60816;PMS5003;51921;51.518;-3.188;2024-03-02T00:26:44;13;13;
60816;PMS5003;51921;51.518;-3.188;2024-03-02T00:29:08;12;12;
60816;PMS5003;51921;51.518;-3.188;2024-03-02T00:31:34;10;10;
60816;PMS5003;51921;51.518;-3.188;2024-03-02T00:34:00;12;12;
60816;PMS5003;51921;51.518;-3.188;2024-03-02T00:36:26;12;12;
60816;PMS5003;51921;51.518;-3.188;2024-03-02T00:38:51;12;12;
60816;PMS5003;51921;51.518;-3.188;2024-03-02T00:41:19;12;11;
60816;PMS5003;51921;51.518;-3.188;2024-03-02T00:43:43;11;11;
60816;PMS5003;51921;51.518;-3.188;2024-03-02T00:46:08;11;11;
60816;PMS5003;51921;51.518;-3.188;2024-03-02T00:48:34;10;8;
60816;PMS5003;51921;51.518;-3.188;2024-03-02T00:50:59;12;10;
60816;PMS5003;51921;51.518;-3.188;2024-03-02T00:53:25;11;11;
60816;PMS5003;51921;51.518;-3.188;2024-03-02T00:55:51;13;9;
60816;PMS5003;51921;51.518;-3.188;2024-03-02T00:58:17;8;8;
60816;PMS5003;51921;51.518;-3.188;2024-03-02T01:00:42;10;9;
60816;PMS5003;51921;51.518;-3.188;2024-03-02T01:03:08;8;7;
60816;PMS5003;51921;51.518;-3.188;2024-03-02T01:05:34;9;8;
60816;PMS5003;51921;51.518;-3.188;2024-03-02T01:07:59;9;9;
60816;PMS5003;51921;51.518;-3.188;2024-03-02T01:10:25;5;5;
60816;PMS5003;51921;51.518;-3.188;2024-03-02T01:12:51;7;6;
60816;PMS5003;51921;51.518;-3.188;2024-03-02T01:15:16;7;6;
60816;PMS5003;51921;51.518;-3.188;2024-03-02T01:17:42;3;3;
60816;PMS5003;51921;51.518;-3.188;2024-03-02T01:20:08;1;1;
60816;PMS5003;51921;51.518;-3.188;2024-03-02T01:22:33;1;1;
60816;PMS5003;51921;51.518;-3.188;2024-03-02T01:24:59;3;2;
60816;PMS5003;51921;51.518;-3.188;2024-03-02T01:27:25;1;1;
60816;PMS5003;51921;51.518;-3.188;2024-03-02T01:29:50;2;2;
60816;PMS5003;51921;51.518;-3.188;2024-03-02T01:32:16;2;2;
60816;PMS5003;51921;51.518;-3.188;2024-03-02T01:34:42;2;2;
60816;PMS5003;51921;51.518;-3.188;2024-03-02T01:37:08;5;4;
60816;PMS5003;51921;51.518;-3.188;2024-03-02T01:39:33;4;3;
60816;PMS5003;51921;51.518;-3.188;2024-03-02T01:41:59;3;2;
60816;PMS5003;51921;51.518;-3.188;2024-03-02T01:44:25;3;3;
60816;PMS5003;51921;51.518;-3.188;2024-03-02T01:46:50;2;2;
60816;PMS5003;51921;51.518;-3.188;2024-03-02T01:49:16;5;5;
60816;PMS5003;51921;51.518;-3.188;2024-03-02T01:51:42;5;5;
60816;PMS5003;51921;51.518;-3.188;2024-03-02T01:54:08;5;4;
60816;PMS5003;51921;51.518;-3.188;2024-03-02T01:56:33;5;4;
60816;PMS5003;51921;51.518;-3.188;2024-03-02T01:58:59;5;5;
60816;PMS5003;51921;51.518;-3.188;2024-03-02T02:01:25;5;5;
60816;PMS5003;51921;51.518;-3.188;2024-03-02T02:03:50;5;5;
60816;PMS5003;51921;51.518;-3.188;2024-03-02T02:06:16;5;5;
60816;PMS5003;51921;51.518;-3.188;2024-03-02T02:08:42;4;4;
60816;PMS5003;51921;51.518;-3.188;2024-03-02T02:11:07;3;3;
60816;PMS5003;51921;51.518;-3.188;2024-03-02T02:13:33;4;4;
60816;PMS5003;51921;51.518;-3.188;2024-03-02T02:18:24;2;2;
60816;PMS5003;51921;51.518;-3.188;2024-03-02T02:20:50;2;2;
60816;PMS5003;51921;51.518;-3.188;2024-03-02T02:23:16;2;2;
60816;PMS5003;51921;51.518;-3.188;2024-03-02T02:25:42;2;2;
60816;PMS5003;51921;51.518;-3.188;2024-03-02T02:28:07;1;1;
60816;PMS5003;51921;51.518;-3.188;2024-03-02T02:30:33;2;1;
60816;PMS5003;51921;51.518;-3.188;2024-03-02T02:32:59;1;1;
60816;PMS5003;51921;51.518;-3.188;2024-03-02T02:35:24;2;2;
60816;PMS5003;51921;51.518;-3.188;2024-03-02T02:37:50;1;1;
60816;PMS5003;51921;51.518;-3.188;2024-03-02T02:40:16;1;0;
60816;PMS5003;51921;51.518;-3.188;2024-03-02T02:42:41;0;0;
60816;PMS5003;51921;51.518;-3.188;2024-03-02T02:45:07;0;0;
60816;PMS5003;51921;51.518;-3.188;2024-03-02T02:47:33;0;0;
60816;PMS5003;51921;51.518;-3.188;2024-03-02T02:49:59;0;0;
60816;PMS5003;51921;51.518;-3.188;2024-03-02T02:52:24;1;1;
60816;PMS5003;51921;51.518;-3.188;2024-03-02T02:54:50;0;0;
60816;PMS5003;51921;51.518;-3.188;2024-03-02T02:57:15;0;0;
60816;PMS5003;51921;51.518;-3.188;2024-03-02T02:59:41;1;1;
60816;PMS5003;51921;51.518;-3.188;2024-03-02T03:02:07;1;1;
60816;PMS5003;51921;51.518;-3.188;2024-03-02T03:04:33;1;1;
60816;PMS5003;51921;51.518;-3.188;2024-03-02T03:06:58;1;1;
60816;PMS5003;51921;51.518;-3.188;2024-03-02T03:09:24;1;1;
60816;PMS5003;51921;51.518;-3.188;2024-03-02T03:11:50;2;2;
60816;PMS5003;51921;51.518;-3.188;2024-03-02T03:14:15;2;2;
60816;PMS5003;51921;51.518;-3.188;2024-03-02T03:16:41;2;2;
60816;PMS5003;51921;51.518;-3.188;2024-03-02T03:19:07;2;2;
60816;PMS5003;51921;51.518;-3.188;2024-03-02T03:21:32;2;2;
60816;PMS5003;51921;51.518;-3.188;2024-03-02T03:23:58;2;2;
60816;PMS5003;51921;51.518;-3.188;2024-03-02T03:26:24;2;2;
60816;PMS5003;51921;51.518;-3.188;2024-03-02T03:28:49;2;2;
60816;PMS5003;51921;51.518;-3.188;2024-03-02T03:31:15;2;2;
60816;PMS5003;51921;51.518;-3.188;2024-03-02T03:33:41;1;1;
60816;PMS5003;51921;51.518;-3.188;2024-03-02T03:36:06;2;2;
60816;PMS5003;51921;51.518;-3.188;2024-03-02T03:38:32;3;3;
60816;PMS5003;51921;51.518;-3.188;2024-03-02T03:40:58;3;3;
60816;PMS5003;51921;51.518;-3.188;2024-03-02T03:43:24;3;2;
60816;PMS5003;51921;51.518;-3.188;2024-03-02T03:45:49;3;2;
60816;PMS5003;51921;51.518;-3.188;2024-03-02T03:48:15;2;2;
60816;PMS5003;51921;51.518;-3.188;2024-03-02T03:50:41;2;2;
60816;PMS5003;51921;51.518;-3.188;2024-03-02T03:53:06;2;2;
60816;PMS5003;51921;51.518;-3.188;2024-03-02T03:55:32;2;2;
60816;PMS5003;51921;51.518;-3.188;2024-03-02T03:57:58;2;2;
60816;PMS5003;51921;51.518;-3.188;2024-03-02T04:00:23;1;1;
60816;PMS5003;51921;51.518;-3.188;2024-03-02T04:02:49;2;1;
60816;PMS5003;51921;51.518;-3.188;2024-03-02T04:05:14;1;1;
60816;PMS5003;51921;51.518;-3.188;2024-03-02T04:07:40;1;1;
60816;PMS5003;51921;51.518;-3.188;2024-03-02T04:10:07;0;0;
60816;PMS5003;51921;51.518;-3.188;2024-03-02T04:12:32;0;0;
60816;PMS5003;51921;51.518;-3.188;2024-03-02T04:14:57;0;0;
60816;PMS5003;51921;51.518;-3.188;2024-03-02T04:17:23;0;0;
60816;PMS5003;51921;51.518;-3.188;2024-03-02T04:19:49;0;0;
60816;PMS5003;51921;51.518;-3.188;2024-03-02T04:22:14;1;1;
60816;PMS5003;51921;51.518;-3.188;2024-03-02T04:24:40;1;1;
60816;PMS5003;51921;51.518;-3.188;2024-03-02T04:27:05;1;1;
60816;PMS5003;51921;51.518;-3.188;2024-03-02T04:29:31;0;0;
60816;PMS5003;51921;51.518;-3.188;2024-03-02T04:31:57;0;0;
60816;PMS5003;51921;51.518;-3.188;2024-03-02T04:34:22;0;0;
60816;PMS5003;51921;51.518;-3.188;2024-03-02T04:36:48;0;0;
60816;PMS5003;51921;51.518;-3.188;2024-03-02T04:39:14;0;0;
60816;PMS5003;51921;51.518;-3.188;2024-03-02T04:41:39;1;1;
60816;PMS5003;51921;51.518;-3.188;2024-03-02T04:44:05;1;1;
60816;PMS5003;51921;51.518;-3.188;2024-03-02T04:46:31;2;1;
60816;PMS5003;51921;51.518;-3.188;2024-03-02T04:48:56;1;1;
60816;PMS5003;51921;51.518;-3.188;2024-03-02T04:51:22;2;2;
60816;PMS5003;51921;51.518;-3.188;2024-03-02T04:53:48;1;1;
60816;PMS5003;51921;51.518;-3.188;2024-03-02T04:56:13;1;1;
60816;PMS5003;51921;51.518;-3.188;2024-03-02T04:58:39;1;1;
60816;PMS5003;51921;51.518;-3.188;2024-03-02T05:01:05;1;1;
60816;PMS5003;51921;51.518;-3.188;2024-03-02T05:03:30;1;1;
60816;PMS5003;51921;51.518;-3.188;2024-03-02T05:05:56;1;1;
60816;PMS5003;51921;51.518;-3.188;2024-03-02T05:08:22;1;1;
60816;PMS5003;51921;51.518;-3.188;2024-03-02T05:10:47;1;1;
60816;PMS5003;51921;51.518;-3.188;2024-03-02T05:13:13;1;1;
60816;PMS5003;51921;51.518;-3.188;2024-03-02T05:15:39;2;1;
60816;PMS5003;51921;51.518;-3.188;2024-03-02T05:18:04;1;1;
60816;PMS5003;51921;51.518;-3.188;2024-03-02T05:20:30;2;2;
60816;PMS5003;51921;51.518;-3.188;2024-03-02T05:22:55;2;2;
60816;PMS5003;51921;51.518;-3.188;2024-03-02T05:25:21;2;2;
60816;PMS5003;51921;51.518;-3.188;2024-03-02T05:27:47;1;1;
60816;PMS5003;51921;51.518;-3.188;2024-03-02T05:30:12;1;1;
60816;PMS5003;51921;51.518;-3.188;2024-03-02T05:32:38;1;1;
60816;PMS5003;51921;51.518;-3.188;2024-03-02T05:35:04;2;2;
60816;PMS5003;51921;51.518;-3.188;2024-03-02T05:37:29;1;1;
60816;PMS5003;51921;51.518;-3.188;2024-03-02T05:39:55;1;1;
60816;PMS5003;51921;51.518;-3.188;2024-03-02T05:42:21;2;2;
60816;PMS5003;51921;51.518;-3.188;2024-03-02T05:44:46;2;2;
60816;PMS5003;51921;51.518;-3.188;2024-03-02T05:47:13;1;1;
60816;PMS5003;51921;51.518;-3.188;2024-03-02T05:49:38;1;1;
60816;PMS5003;51921;51.518;-3.188;2024-03-02T05:52:03;1;1;
60816;PMS5003;51921;51.518;-3.188;2024-03-02T05:54:29;2;2;
60816;PMS5003;51921;51.518;-3.188;2024-03-02T05:56:54;1;1;
60816;PMS5003;51921;51.518;-3.188;2024-03-02T05:59:20;1;1;
60816;PMS5003;51921;51.518;-3.188;2024-03-02T06:01:46;1;1;
60816;PMS5003;51921;51.518;-3.188;2024-03-02T06:04:12;1;1;
60816;PMS5003;51921;51.518;-3.188;2024-03-02T06:06:37;1;1;
60816;PMS5003;51921;51.518;-3.188;2024-03-02T06:09:03;1;1;
60816;PMS5003;51921;51.518;-3.188;2024-03-02T06:11:28;1;1;
60816;PMS5003;51921;51.518;-3.188;2024-03-02T06:13:54;1;1;
60816;PMS5003;51921;51.518;-3.188;2024-03-02T06:16:20;2;1;
60816;PMS5003;51921;51.518;-3.188;2024-03-02T06:18:45;3;3;
60816;PMS5003;51921;51.518;-3.188;2024-03-02T06:21:11;4;4;
60816;PMS5003;51921;51.518;-3.188;2024-03-02T06:23:37;2;2;
60816;PMS5003;51921;51.518;-3.188;2024-03-02T06:26:02;2;2;
60816;PMS5003;51921;51.518;-3.188;2024-03-02T06:28:28;1;1;
60816;PMS5003;51921;51.518;-3.188;2024-03-02T06:30:54;0;0;
60816;PMS5003;51921;51.518;-3.188;2024-03-02T06:33:19;1;1;
60816;PMS5003;51921;51.518;-3.188;2024-03-02T06:35:45;2;2;
60816;PMS5003;51921;51.518;-3.188;2024-03-02T06:38:11;4;3;
60816;PMS5003;51921;51.518;-3.188;2024-03-02T06:40:36;2;2;
60816;PMS5003;51921;51.518;-3.188;2024-03-02T06:43:02;1;1;
60816;PMS5003;51921;51.518;-3.188;2024-03-02T06:45:28;3;2;
60816;PMS5003;51921;51.518;-3.188;2024-03-02T06:47:53;2;2;
60816;PMS5003;51921;51.518;-3.188;2024-03-02T06:50:19;2;2;
60816;PMS5003;51921;51.518;-3.188;2024-03-02T06:52:45;4;4;
60816;PMS5003;51921;51.518;-3.188;2024-03-02T06:55:10;3;3;
60816;PMS5003;51921;51.518;-3.188;2024-03-02T06:57:36;2;2;
60816;PMS5003;51921;51.518;-3.188;2024-03-02T07:00:02;1;1;
60816;PMS5003;51921;51.518;-3.188;2024-03-02T07:02:27;1;1;
60816;PMS5003;51921;51.518;-3.188;2024-03-02T07:04:53;3;2;
60816;PMS5003;51921;51.518;-3.188;2024-03-02T07:07:19;3;3;
60816;PMS5003;51921;51.518;-3.188;2024-03-02T07:09:44;2;2;
60816;PMS5003;51921;51.518;-3.188;2024-03-02T07:12:10;2;2;
60816;PMS5003;51921;51.518;-3.188;2024-03-02T07:14:36;2;2;
60816;PMS5003;51921;51.518;-3.188;2024-03-02T07:17:01;3;3;
60816;PMS5003;51921;51.518;-3.188;2024-03-02T07:19:27;2;2;
60816;PMS5003;51921;51.518;-3.188;2024-03-02T07:21:53;3;3;
60816;PMS5003;51921;51.518;-3.188;2024-03-02T07:24:18;3;3;
60816;PMS5003;51921;51.518;-3.188;2024-03-02T07:26:44;2;2;
60816;PMS5003;51921;51.518;-3.188;2024-03-02T07:29:10;3;3;
60816;PMS5003;51921;51.518;-3.188;2024-03-02T07:31:35;5;4;
60816;PMS5003;51921;51.518;-3.188;2024-03-02T07:34:01;3;3;
60816;PMS5003;51921;51.518;-3.188;2024-03-02T07:36:27;4;4;
60816;PMS5003;51921;51.518;-3.188;2024-03-02T07:38:53;4;4;
60816;PMS5003;51921;51.518;-3.188;2024-03-02T07:41:18;2;2;
60816;PMS5003;51921;51.518;-3.188;2024-03-02T07:43:44;4;4;
60816;PMS5003;51921;51.518;-3.188;2024-03-02T07:46:10;4;3;
60816;PMS5003;51921;51.518;-3.188;2024-03-02T07:48:35;1;1;
60816;PMS5003;51921;51.518;-3.188;2024-03-02T07:51:01;4;3;
60816;PMS5003;51921;51.518;-3.188;2024-03-02T07:53:26;3;3;
60816;PMS5003;51921;51.518;-3.188;2024-03-02T07:55:52;2;2;
60816;PMS5003;51921;51.518;-3.188;2024-03-02T07:58:18;3;3;
60816;PMS5003;51921;51.518;-3.188;2024-03-02T08:00:44;2;2;
60816;PMS5003;51921;51.518;-3.188;2024-03-02T08:03:09;3;3;
60816;PMS5003;51921;51.518;-3.188;2024-03-02T08:05:35;1;1;
60816;PMS5003;51921;51.518;-3.188;2024-03-02T08:08:00;3;2;
60816;PMS5003;51921;51.518;-3.188;2024-03-02T08:10:26;1;1;
60816;PMS5003;51921;51.518;-3.188;2024-03-02T08:12:52;2;2;
60816;PMS5003;51921;51.518;-3.188;2024-03-02T08:15:17;2;2;
60816;PMS5003;51921;51.518;-3.188;2024-03-02T08:17:43;2;2;
60816;PMS5003;51921;51.518;-3.188;2024-03-02T08:20:09;2;2;
60816;PMS5003;51921;51.518;-3.188;2024-03-02T08:22:34;2;2;
60816;PMS5003;51921;51.518;-3.188;2024-03-02T08:25:00;1;1;
60816;PMS5003;51921;51.518;-3.188;2024-03-02T08:27:25;3;2;
60816;PMS5003;51921;51.518;-3.188;2024-03-02T08:29:51;2;2;
60816;PMS5003;51921;51.518;-3.188;2024-03-02T08:32:17;1;1;
60816;PMS5003;51921;51.518;-3.188;2024-03-02T08:34:42;1;1;
60816;PMS5003;51921;51.518;-3.188;2024-03-02T08:37:08;2;2;
60816;PMS5003;51921;51.518;-3.188;2024-03-02T08:39:34;1;1;
60816;PMS5003;51921;51.518;-3.188;2024-03-02T08:41:59;2;2;
60816;PMS5003;51921;51.518;-3.188;2024-03-02T08:44:25;2;2;
60816;PMS5003;51921;51.518;-3.188;2024-03-02T08:46:50;3;3;
60816;PMS5003;51921;51.518;-3.188;2024-03-02T08:49:16;2;2;
60816;PMS5003;51921;51.518;-3.188;2024-03-02T08:51:42;3;3;
60816;PMS5003;51921;51.518;-3.188;2024-03-02T08:54:08;3;3;
60816;PMS5003;51921;51.518;-3.188;2024-03-02T08:56:33;4;4;
60816;PMS5003;51921;51.518;-3.188;2024-03-02T08:58:58;3;3;
60816;PMS5003;51921;51.518;-3.188;2024-03-02T09:01:25;2;2;
60816;PMS5003;51921;51.518;-3.188;2024-03-02T09:03:50;4;4;
60816;PMS5003;51921;51.518;-3.188;2024-03-02T09:06:15;4;4;
60816;PMS5003;51921;51.518;-3.188;2024-03-02T09:08:41;5;5;
60816;PMS5003;51921;51.518;-3.188;2024-03-02T09:11:07;6;5;
60816;PMS5003;51921;51.518;-3.188;2024-03-02T09:13:32;7;6;
60816;PMS5003;51921;51.518;-3.188;2024-03-02T09:15:58;6;6;
60816;PMS5003;51921;51.518;-3.188;2024-03-02T09:18:23;7;7;
60816;PMS5003;51921;51.518;-3.188;2024-03-02T09:20:50;6;6;
60816;PMS5003;51921;51.518;-3.188;2024-03-02T09:23:15;6;6;
60816;PMS5003;51921;51.518;-3.188;2024-03-02T09:25:40;7;7;
60816;PMS5003;51921;51.518;-3.188;2024-03-02T09:28:06;7;7;
60816;PMS5003;51921;51.518;-3.188;2024-03-02T09:30:32;8;8;
60816;PMS5003;51921;51.518;-3.188;2024-03-02T09:32:57;8;8;
60816;PMS5003;51921;51.518;-3.188;2024-03-02T09:35:23;7;7;
60816;PMS5003;51921;51.518;-3.188;2024-03-02T09:37:49;8;7;
60816;PMS5003;51921;51.518;-3.188;2024-03-02T09:40:14;8;8;
60816;PMS5003;51921;51.518;-3.188;2024-03-02T09:42:40;9;7;
60816;PMS5003;51921;51.518;-3.188;2024-03-02T09:45:06;8;7;
60816;PMS5003;51921;51.518;-3.188;2024-03-02T09:47:31;8;7;
60816;PMS5003;51921;51.518;-3.188;2024-03-02T09:49:56;9;9;
60816;PMS5003;51921;51.518;-3.188;2024-03-02T09:52:22;8;7;
60816;PMS5003;51921;51.518;-3.188;2024-03-02T09:54:48;8;8;
60816;PMS5003;51921;51.518;-3.188;2024-03-02T09:57:14;7;7;
60816;PMS5003;51921;51.518;-3.188;2024-03-02T09:59:39;12;11;
60816;PMS5003;51921;51.518;-3.188;2024-03-02T10:02:05;17;15;
60816;PMS5003;51921;51.518;-3.188;2024-03-02T10:04:30;8;8;
60816;PMS5003;51921;51.518;-3.188;2024-03-02T10:09:26;8;8;
60816;PMS5003;51921;51.518;-3.188;2024-03-02T10:11:47;9;8;
60816;PMS5003;51921;51.518;-3.188;2024-03-02T10:14:13;9;9;
60816;PMS5003;51921;51.518;-3.188;2024-03-02T10:16:39;11;10;
60816;PMS5003;51921;51.518;-3.188;2024-03-02T10:19:15;11;11;
60816;PMS5003;51921;51.518;-3.188;2024-03-02T10:21:30;15;14;
60816;PMS5003;51921;51.518;-3.188;2024-03-02T10:23:56;10;9;
60816;PMS5003;51921;51.518;-3.188;2024-03-02T10:26:21;8;8;
60816;PMS5003;51921;51.518;-3.188;2024-03-02T10:28:47;11;11;
60816;PMS5003;51921;51.518;-3.188;2024-03-02T10:31:13;14;12;
60816;PMS5003;51921;51.518;-3.188;2024-03-02T10:33:38;11;11;
60816;PMS5003;51921;51.518;-3.188;2024-03-02T10:36:04;11;10;
60816;PMS5003;51921;51.518;-3.188;2024-03-02T10:38:29;9;9;
60816;PMS5003;51921;51.518;-3.188;2024-03-02T10:40:55;16;15;
60816;PMS5003;51921;51.518;-3.188;2024-03-02T10:43:20;11;10;
60816;PMS5003;51921;51.518;-3.188;2024-03-02T10:45:46;17;17;
60816;PMS5003;51921;51.518;-3.188;2024-03-02T10:48:11;10;9;
60816;PMS5003;51921;51.518;-3.188;2024-03-02T10:50:37;9;8;
60816;PMS5003;51921;51.518;-3.188;2024-03-02T10:53:02;13;12;
60816;PMS5003;51921;51.518;-3.188;2024-03-02T10:55:28;13;13;
60816;PMS5003;51921;51.518;-3.188;2024-03-02T10:57:54;10;10;
60816;PMS5003;51921;51.518;-3.188;2024-03-02T11:00:19;11;11;
60816;PMS5003;51921;51.518;-3.188;2024-03-02T11:02:45;9;9;
60816;PMS5003;51921;51.518;-3.188;2024-03-02T11:05:09;10;10;
60816;PMS5003;51921;51.518;-3.188;2024-03-02T11:07:35;15;13;
60816;PMS5003;51921;51.518;-3.188;2024-03-02T11:10:01;11;8;
60816;PMS5003;51921;51.518;-3.188;2024-03-02T11:12:27;9;9;
60816;PMS5003;51921;51.518;-3.188;2024-03-02T11:14:51;11;11;
60816;PMS5003;51921;51.518;-3.188;2024-03-02T11:17:17;10;10;
60816;PMS5003;51921;51.518;-3.188;2024-03-02T11:19:42;10;9;
60816;PMS5003;51921;51.518;-3.188;2024-03-02T11:22:08;14;13;
60816;PMS5003;51921;51.518;-3.188;2024-03-02T11:24:34;11;11;
60816;PMS5003;51921;51.518;-3.188;2024-03-02T11:26:59;9;7;
60816;PMS5003;51921;51.518;-3.188;2024-03-02T11:31:58;9;9;
60816;PMS5003;51921;51.518;-3.188;2024-03-02T11:34:17;13;12;
60816;PMS5003;51921;51.518;-3.188;2024-03-02T11:36:41;12;11;
60816;PMS5003;51921;51.518;-3.188;2024-03-02T11:39:07;14;14;
60816;PMS5003;51921;51.518;-3.188;2024-03-02T11:41:32;14;13;
60816;PMS5003;51921;51.518;-3.188;2024-03-02T11:43:58;13;13;
60816;PMS5003;51921;51.518;-3.188;2024-03-02T11:46:23;16;13;
60816;PMS5003;51921;51.518;-3.188;2024-03-02T11:48:49;14;13;
60816;PMS5003;51921;51.518;-3.188;2024-03-02T11:51:14;12;11;
60816;PMS5003;51921;51.518;-3.188;2024-03-02T11:53:41;10;10;
60816;PMS5003;51921;51.518;-3.188;2024-03-02T11:56:06;12;10;
60816;PMS5003;51921;51.518;-3.188;2024-03-02T11:58:31;12;12;
60816;PMS5003;51921;51.518;-3.188;2024-03-02T12:00:57;10;9;
60816;PMS5003;51921;51.518;-3.188;2024-03-02T12:03:23;13;13;
60816;PMS5003;51921;51.518;-3.188;2024-03-02T12:05:49;11;10;
60816;PMS5003;51921;51.518;-3.188;2024-03-02T12:08:14;10;10;
60816;PMS5003;51921;51.518;-3.188;2024-03-02T12:10:39;14;14;
60816;PMS5003;51921;51.518;-3.188;2024-03-02T12:13:06;11;11;
60816;PMS5003;51921;51.518;-3.188;2024-03-02T12:15:31;10;9;
60816;PMS5003;51921;51.518;-3.188;2024-03-02T12:17:57;10;10;
60816;PMS5003;51921;51.518;-3.188;2024-03-02T12:20:22;13;12;
60816;PMS5003;51921;51.518;-3.188;2024-03-02T12:22:48;19;17;
60816;PMS5003;51921;51.518;-3.188;2024-03-02T12:25:14;15;15;
60816;PMS5003;51921;51.518;-3.188;2024-03-02T12:27:39;12;11;
60816;PMS5003;51921;51.518;-3.188;2024-03-02T12:30:05;11;11;
60816;PMS5003;51921;51.518;-3.188;2024-03-02T12:32:30;17;17;
60816;PMS5003;51921;51.518;-3.188;2024-03-02T12:34:56;15;14;
60816;PMS5003;51921;51.518;-3.188;2024-03-02T12:37:22;14;14;
60816;PMS5003;51921;51.518;-3.188;2024-03-02T12:39:47;12;12;
60816;PMS5003;51921;51.518;-3.188;2024-03-02T12:42:13;11;11;
60816;PMS5003;51921;51.518;-3.188;2024-03-02T12:44:39;10;9;
60816;PMS5003;51921;51.518;-3.188;2024-03-02T12:47:04;11;10;
60816;PMS5003;51921;51.518;-3.188;2024-03-02T12:49:30;9;8;
60816;PMS5003;51921;51.518;-3.188;2024-03-02T12:51:55;7;7;
60816;PMS5003;51921;51.518;-3.188;2024-03-02T12:54:22;12;12;
60816;PMS5003;51921;51.518;-3.188;2024-03-02T12:56:46;12;12;
60816;PMS5003;51921;51.518;-3.188;2024-03-02T13:01:38;12;12;
60816;PMS5003;51921;51.518;-3.188;2024-03-02T13:04:03;7;7;
60816;PMS5003;51921;51.518;-3.188;2024-03-02T13:06:29;8;8;
60816;PMS5003;51921;51.518;-3.188;2024-03-02T13:08:55;8;7;
60816;PMS5003;51921;51.518;-3.188;2024-03-02T13:11:21;8;7;
60816;PMS5003;51921;51.518;-3.188;2024-03-02T13:13:46;5;5;
60816;PMS5003;51921;51.518;-3.188;2024-03-02T13:16:12;6;6;
60816;PMS5003;51921;51.518;-3.188;2024-03-02T13:18:38;5;5;
60816;PMS5003;51921;51.518;-3.188;2024-03-02T13:21:03;6;6;
60816;PMS5003;51921;51.518;-3.188;2024-03-02T13:23:28;10;7;
60816;PMS5003;51921;51.518;-3.188;2024-03-02T13:25:54;9;9;
60816;PMS5003;51921;51.518;-3.188;2024-03-02T13:28:20;9;8;
60816;PMS5003;51921;51.518;-3.188;2024-03-02T13:30:45;13;12;
60816;PMS5003;51921;51.518;-3.188;2024-03-02T13:33:11;8;8;
60816;PMS5003;51921;51.518;-3.188;2024-03-02T13:35:36;7;7;
60816;PMS5003;51921;51.518;-3.188;2024-03-02T13:38:02;7;6;
60816;PMS5003;51921;51.518;-3.188;2024-03-02T13:40:28;11;11;
60816;PMS5003;51921;51.518;-3.188;2024-03-02T13:42:53;5;5;
60816;PMS5003;51921;51.518;-3.188;2024-03-02T13:45:18;8;8;
60816;PMS5003;51921;51.518;-3.188;2024-03-02T13:47:44;11;10;
60816;PMS5003;51921;51.518;-3.188;2024-03-02T13:50:10;63;60;
60816;PMS5003;51921;51.518;-3.188;2024-03-02T13:52:34;35;34;
60816;PMS5003;51921;51.518;-3.188;2024-03-02T13:55:00;20;19;
60816;PMS5003;51921;51.518;-3.188;2024-03-02T13:57:25;10;10;
60816;PMS5003;51921;51.518;-3.188;2024-03-02T13:59:51;5;5;
60816;PMS5003;51921;51.518;-3.188;2024-03-02T14:02:16;6;5;
60816;PMS5003;51921;51.518;-3.188;2024-03-02T14:04:42;4;4;
60816;PMS5003;51921;51.518;-3.188;2024-03-02T14:07:08;7;7;
60816;PMS5003;51921;51.518;-3.188;2024-03-02T14:09:33;8;6;
60816;PMS5003;51921;51.518;-3.188;2024-03-02T14:11:58;5;5;
60816;PMS5003;51921;51.518;-3.188;2024-03-02T14:14:24;5;4;
60816;PMS5003;51921;51.518;-3.188;2024-03-02T14:16:50;5;5;
60816;PMS5003;51921;51.518;-3.188;2024-03-02T14:19:15;6;5;
60816;PMS5003;51921;51.518;-3.188;2024-03-02T14:21:41;5;5;
60816;PMS5003;51921;51.518;-3.188;2024-03-02T14:24:06;3;3;
60816;PMS5003;51921;51.518;-3.188;2024-03-02T14:26:32;3;3;
60816;PMS5003;51921;51.518;-3.188;2024-03-02T14:28:57;2;2;
60816;PMS5003;51921;51.518;-3.188;2024-03-02T14:31:23;2;2;
60816;PMS5003;51921;51.518;-3.188;2024-03-02T14:33:48;3;2;
60816;PMS5003;51921;51.518;-3.188;2024-03-02T14:36:14;13;12;
60816;PMS5003;51921;51.518;-3.188;2024-03-02T14:38:40;8;7;
60816;PMS5003;51921;51.518;-3.188;2024-03-02T14:41:05;6;6;
60816;PMS5003;51921;51.518;-3.188;2024-03-02T14:43:31;5;5;
60816;PMS5003;51921;51.518;-3.188;2024-03-02T14:45:56;6;6;
60816;PMS5003;51921;51.518;-3.188;2024-03-02T14:48:22;5;5;
60816;PMS5003;51921;51.518;-3.188;2024-03-02T14:50:47;11;11;
60816;PMS5003;51921;51.518;-3.188;2024-03-02T14:53:13;9;9;
60816;PMS5003;51921;51.518;-3.188;2024-03-02T14:55:39;7;7;
60816;PMS5003;51921;51.518;-3.188;2024-03-02T14:58:04;5;4;
60816;PMS5003;51921;51.518;-3.188;2024-03-02T15:00:30;4;4;
60816;PMS5003;51921;51.518;-3.188;2024-03-02T15:02:55;5;3;
60816;PMS5003;51921;51.518;-3.188;2024-03-02T15:05:21;3;3;
60816;PMS5003;51921;51.518;-3.188;2024-03-02T15:07:47;2;2;
60816;PMS5003;51921;51.518;-3.188;2024-03-02T15:10:12;3;3;
60816;PMS5003;51921;51.518;-3.188;2024-03-02T15:12:38;5;5;
60816;PMS5003;51921;51.518;-3.188;2024-03-02T15:15:04;4;4;
60816;PMS5003;51921;51.518;-3.188;2024-03-02T15:17:29;4;4;
60816;PMS5003;51921;51.518;-3.188;2024-03-02T15:19:54;4;4;
60816;PMS5003;51921;51.518;-3.188;2024-03-02T15:22:20;4;3;
60816;PMS5003;51921;51.518;-3.188;2024-03-02T15:24:46;4;4;
60816;PMS5003;51921;51.518;-3.188;2024-03-02T15:27:12;7;4;
60816;PMS5003;51921;51.518;-3.188;2024-03-02T15:29:37;4;4;
60816;PMS5003;51921;51.518;-3.188;2024-03-02T15:32:02;4;4;
60816;PMS5003;51921;51.518;-3.188;2024-03-02T15:34:28;5;4;
60816;PMS5003;51921;51.518;-3.188;2024-03-02T15:36:53;4;4;
60816;PMS5003;51921;51.518;-3.188;2024-03-02T15:39:19;4;4;
60816;PMS5003;51921;51.518;-3.188;2024-03-02T15:41:45;6;6;
60816;PMS5003;51921;51.518;-3.188;2024-03-02T15:44:11;5;4;
60816;PMS5003;51921;51.518;-3.188;2024-03-02T15:46:36;4;4;
60816;PMS5003;51921;51.518;-3.188;2024-03-02T15:49:01;7;5;
60816;PMS5003;51921;51.518;-3.188;2024-03-02T15:51:27;6;6;
60816;PMS5003;51921;51.518;-3.188;2024-03-02T15:53:52;5;5;
60816;PMS5003;51921;51.518;-3.188;2024-03-02T15:56:18;7;7;
60816;PMS5003;51921;51.518;-3.188;2024-03-02T15:58:44;7;7;
60816;PMS5003;51921;51.518;-3.188;2024-03-02T16:01:09;9;9;
60816;PMS5003;51921;51.518;-3.188;2024-03-02T16:03:35;4;4;
60816;PMS5003;51921;51.518;-3.188;2024-03-02T16:06:00;6;6;
60816;PMS5003;51921;51.518;-3.188;2024-03-02T16:08:26;6;6;
60816;PMS5003;51921;51.518;-3.188;2024-03-02T16:10:52;8;8;
60816;PMS5003;51921;51.518;-3.188;2024-03-02T16:13:17;7;7;
60816;PMS5003;51921;51.518;-3.188;2024-03-02T16:15:43;9;9;
60816;PMS5003;51921;51.518;-3.188;2024-03-02T16:18:08;6;6;
60816;PMS5003;51921;51.518;-3.188;2024-03-02T16:20:34;5;5;
60816;PMS5003;51921;51.518;-3.188;2024-03-02T16:23:00;6;6;